sensor_id;sensor_type;location;lat;lon;timestamp;temperature;humidity
12015;DHT22;6066;48.138;16.402;2022-09-17T00:00:37;13.30;99.90
12015;DHT22;6066;48.138;16.402;2022-09-17T00:03:04;13.30;99.90
12015;DHT22;6066;48.138;16.402;2022-09-17T00:05:31;13.30;99.90
12015;DHT22;6066;48.138;16.402;2022-09-17T00:07:57;13.30;99.90
12015;DHT22;6066;48.138;16.402;2022-09-17T00:10:24;13.30;99.90
12015;DHT22;6066;48.138;16.402;2022-09-17T00:12:52;13.30;99.90
12015;DHT22;6066;48.138;16.402;2022-09-17T00:15:19;13.30;99.90
12015;DHT22;6066;48.138;16.402;2022-09-17T00:17:46;13.20;99.90
12015;DHT22;6066;48.138;16.402;2022-09-17T00:20:12;13.20;99.90
12015;DHT22;6066;48.138;16.402;2022-09-17T00:22:39;13.20;99.90
12015;DHT22;6066;48.138;16.402;2022-09-17T00:25:06;13.20;99.90
12015;DHT22;6066;48.138;16.402;2022-09-17T00:27:33;13.20;99.90
12015;DHT22;6066;48.138;16.402;2022-09-17T00:30:02;13.20;99.90
12015;DHT22;6066;48.138;16.402;2022-09-17T00:32:29;13.20;99.90
12015;DHT22;6066;48.138;16.402;2022-09-17T00:34:55;13.20;99.90
12015;DHT22;6066;48.138;16.402;2022-09-17T00:37:22;13.20;99.90
12015;DHT22;6066;48.138;16.402;2022-09-17T00:39:49;13.10;99.90
12015;DHT22;6066;48.138;16.402;2022-09-17T00:42:15;13.10;99.90
12015;DHT22;6066;48.138;16.402;2022-09-17T00:44:47;13.10;99.90
12015;DHT22;6066;48.138;16.402;2022-09-17T00:47:26;13.10;99.90
12015;DHT22;6066;48.138;16.402;2022-09-17T00:49:55;13.10;99.90
12015;DHT22;6066;48.138;16.402;2022-09-17T00:52:24;13.10;99.90
12015;DHT22;6066;48.138;16.402;2022-09-17T00:54:53;13.10;99.90
12015;DHT22;6066;48.138;16.402;2022-09-17T00:57:21;13.10;99.90
12015;DHT22;6066;48.138;16.402;2022-09-17T00:59:48;13.10;99.90
12015;DHT22;6066;48.138;16.402;2022-09-17T01:02:15;13.10;99.90
12015;DHT22;6066;48.138;16.402;2022-09-17T01:04:43;13.10;99.90
12015;DHT22;6066;48.138;16.402;2022-09-17T01:07:11;13.10;99.90
12015;DHT22;6066;48.138;16.402;2022-09-17T01:09:42;13.10;99.90
12015;DHT22;6066;48.138;16.402;2022-09-17T01:12:17;13.10;99.90
12015;DHT22;6066;48.138;16.402;2022-09-17T01:14:51;13.10;99.90
12015;DHT22;6066;48.138;16.402;2022-09-17T01:17:23;13.00;99.90
12015;DHT22;6066;48.138;16.402;2022-09-17T01:20:02;13.00;99.90
12015;DHT22;6066;48.138;16.402;2022-09-17T01:22:32;13.00;99.90
12015;DHT22;6066;48.138;16.402;2022-09-17T01:25:05;13.00;99.90
12015;DHT22;6066;48.138;16.402;2022-09-17T01:27:50;13.00;99.90
12015;DHT22;6066;48.138;16.402;2022-09-17T01:33:07;13.00;99.90
12015;DHT22;6066;48.138;16.402;2022-09-17T01:35:37;12.90;99.90
12015;DHT22;6066;48.138;16.402;2022-09-17T01:38:09;12.90;99.90
12015;DHT22;6066;48.138;16.402;2022-09-17T01:40:38;12.90;99.90
12015;DHT22;6066;48.138;16.402;2022-09-17T01:43:07;13.00;99.90
12015;DHT22;6066;48.138;16.402;2022-09-17T01:45:36;12.90;99.90
12015;DHT22;6066;48.138;16.402;2022-09-17T01:48:04;12.90;99.90
12015;DHT22;6066;48.138;16.402;2022-09-17T01:50:35;12.90;99.90
12015;DHT22;6066;48.138;16.402;2022-09-17T01:53:03;12.90;99.90
12015;DHT22;6066;48.138;16.402;2022-09-17T01:55:31;12.90;99.90
12015;DHT22;6066;48.138;16.402;2022-09-17T01:57:59;12.80;99.90
12015;DHT22;6066;48.138;16.402;2022-09-17T02:00:27;12.80;99.90
12015;DHT22;6066;48.138;16.402;2022-09-17T02:02:55;12.80;99.90
12015;DHT22;6066;48.138;16.402;2022-09-17T02:05:25;12.70;99.90
12015;DHT22;6066;48.138;16.402;2022-09-17T02:07:56;12.70;99.90
12015;DHT22;6066;48.138;16.402;2022-09-17T02:10:24;12.70;99.90
12015;DHT22;6066;48.138;16.402;2022-09-17T02:12:54;12.60;99.90
12015;DHT22;6066;48.138;16.402;2022-09-17T02:15:23;12.60;99.90
12015;DHT22;6066;48.138;16.402;2022-09-17T02:17:53;12.60;99.90
12015;DHT22;6066;48.138;16.402;2022-09-17T02:20:21;12.60;99.90
12015;DHT22;6066;48.138;16.402;2022-09-17T02:22:51;12.60;99.90
12015;DHT22;6066;48.138;16.402;2022-09-17T02:25:23;12.60;99.90
12015;DHT22;6066;48.138;16.402;2022-09-17T02:27:54;12.60;99.90
12015;DHT22;6066;48.138;16.402;2022-09-17T02:30:23;12.60;99.90
12015;DHT22;6066;48.138;16.402;2022-09-17T02:32:50;12.60;99.90
12015;DHT22;6066;48.138;16.402;2022-09-17T02:35:16;12.60;99.90
12015;DHT22;6066;48.138;16.402;2022-09-17T02:37:43;12.60;99.90
12015;DHT22;6066;48.138;16.402;2022-09-17T02:40:11;12.60;99.90
12015;DHT22;6066;48.138;16.402;2022-09-17T02:42:43;12.60;99.90
12015;DHT22;6066;48.138;16.402;2022-09-17T02:45:15;12.60;99.90
12015;DHT22;6066;48.138;16.402;2022-09-17T02:47:51;12.70;99.90
12015;DHT22;6066;48.138;16.402;2022-09-17T02:50:26;12.70;99.90
12015;DHT22;6066;48.138;16.402;2022-09-17T02:53:04;12.70;99.90
12015;DHT22;6066;48.138;16.402;2022-09-17T02:55:34;12.70;99.90
12015;DHT22;6066;48.138;16.402;2022-09-17T02:58:07;12.70;99.90
12015;DHT22;6066;48.138;16.402;2022-09-17T03:00:38;12.70;99.90
12015;DHT22;6066;48.138;16.402;2022-09-17T03:03:06;12.70;99.90
12015;DHT22;6066;48.138;16.402;2022-09-17T03:05:34;12.70;99.90
12015;DHT22;6066;48.138;16.402;2022-09-17T03:08:02;12.70;99.90
12015;DHT22;6066;48.138;16.402;2022-09-17T03:10:29;12.70;99.90
12015;DHT22;6066;48.138;16.402;2022-09-17T03:12:58;12.70;99.90
12015;DHT22;6066;48.138;16.402;2022-09-17T03:15:26;12.70;99.90
12015;DHT22;6066;48.138;16.402;2022-09-17T03:17:52;12.70;99.90
12015;DHT22;6066;48.138;16.402;2022-09-17T03:20:19;12.70;99.90
12015;DHT22;6066;48.138;16.402;2022-09-17T03:22:46;12.70;99.90
12015;DHT22;6066;48.138;16.402;2022-09-17T03:25:12;12.70;99.90
12015;DHT22;6066;48.138;16.402;2022-09-17T03:27:39;12.70;99.90
12015;DHT22;6066;48.138;16.402;2022-09-17T03:30:06;12.70;99.90
12015;DHT22;6066;48.138;16.402;2022-09-17T03:32:34;12.70;99.90
12015;DHT22;6066;48.138;16.402;2022-09-17T03:35:01;12.70;99.90
12015;DHT22;6066;48.138;16.402;2022-09-17T03:37:28;12.70;99.90
12015;DHT22;6066;48.138;16.402;2022-09-17T03:39:55;12.70;99.90
12015;DHT22;6066;48.138;16.402;2022-09-17T03:42:22;12.70;99.90
12015;DHT22;6066;48.138;16.402;2022-09-17T03:44:48;12.70;99.90
12015;DHT22;6066;48.138;16.402;2022-09-17T03:47:15;12.70;99.90
12015;DHT22;6066;48.138;16.402;2022-09-17T03:49:43;12.70;99.90
12015;DHT22;6066;48.138;16.402;2022-09-17T03:52:10;12.70;99.90
12015;DHT22;6066;48.138;16.402;2022-09-17T03:54:36;12.70;99.90
12015;DHT22;6066;48.138;16.402;2022-09-17T03:57:03;12.70;99.90
12015;DHT22;6066;48.138;16.402;2022-09-17T03:59:30;12.70;99.90
12015;DHT22;6066;48.138;16.402;2022-09-17T04:01:56;12.60;99.90
12015;DHT22;6066;48.138;16.402;2022-09-17T04:04:23;12.60;99.90
12015;DHT22;6066;48.138;16.402;2022-09-17T04:06:51;12.60;99.90
12015;DHT22;6066;48.138;16.402;2022-09-17T04:09:18;12.60;99.90
12015;DHT22;6066;48.138;16.402;2022-09-17T04:11:45;12.60;99.90
12015;DHT22;6066;48.138;16.402;2022-09-17T04:14:12;12.60;99.90
12015;DHT22;6066;48.138;16.402;2022-09-17T04:16:38;12.60;99.90
12015;DHT22;6066;48.138;16.402;2022-09-17T04:19:05;12.60;99.90
12015;DHT22;6066;48.138;16.402;2022-09-17T04:21:32;12.60;99.90
12015;DHT22;6066;48.138;16.402;2022-09-17T04:24:00;12.60;99.90
12015;DHT22;6066;48.138;16.402;2022-09-17T04:26:27;12.60;99.90
12015;DHT22;6066;48.138;16.402;2022-09-17T04:28:53;12.60;99.90
12015;DHT22;6066;48.138;16.402;2022-09-17T04:31:20;12.60;99.90
12015;DHT22;6066;48.138;16.402;2022-09-17T04:33:49;12.60;99.90
12015;DHT22;6066;48.138;16.402;2022-09-17T04:36:15;12.60;99.90
12015;DHT22;6066;48.138;16.402;2022-09-17T04:38:42;12.60;99.90
12015;DHT22;6066;48.138;16.402;2022-09-17T04:41:10;12.60;99.90
12015;DHT22;6066;48.138;16.402;2022-09-17T04:43:37;12.60;99.90
12015;DHT22;6066;48.138;16.402;2022-09-17T04:46:04;12.60;99.90
12015;DHT22;6066;48.138;16.402;2022-09-17T04:48:30;12.60;99.90
12015;DHT22;6066;48.138;16.402;2022-09-17T04:50:57;12.60;99.90
12015;DHT22;6066;48.138;16.402;2022-09-17T04:53:24;12.60;99.90
12015;DHT22;6066;48.138;16.402;2022-09-17T04:55:50;12.60;99.90
12015;DHT22;6066;48.138;16.402;2022-09-17T04:58:18;12.60;99.90
12015;DHT22;6066;48.138;16.402;2022-09-17T05:00:45;12.70;99.90
12015;DHT22;6066;48.138;16.402;2022-09-17T05:03:11;12.70;99.90
12015;DHT22;6066;48.138;16.402;2022-09-17T05:05:38;12.70;99.90
12015;DHT22;6066;48.138;16.402;2022-09-17T05:08:05;12.80;99.90
12015;DHT22;6066;48.138;16.402;2022-09-17T05:10:32;12.80;99.90
12015;DHT22;6066;48.138;16.402;2022-09-17T05:12:59;12.80;99.90
12015;DHT22;6066;48.138;16.402;2022-09-17T05:15:27;12.80;99.90
12015;DHT22;6066;48.138;16.402;2022-09-17T05:17:54;12.80;99.90
12015;DHT22;6066;48.138;16.402;2022-09-17T05:20:21;12.80;99.90
12015;DHT22;6066;48.138;16.402;2022-09-17T05:22:48;12.80;99.90
12015;DHT22;6066;48.138;16.402;2022-09-17T05:25:16;12.80;99.90
12015;DHT22;6066;48.138;16.402;2022-09-17T05:27:43;12.80;99.90
12015;DHT22;6066;48.138;16.402;2022-09-17T05:30:11;12.80;99.90
12015;DHT22;6066;48.138;16.402;2022-09-17T05:32:39;12.90;99.90
12015;DHT22;6066;48.138;16.402;2022-09-17T05:35:06;12.90;99.90
12015;DHT22;6066;48.138;16.402;2022-09-17T05:37:33;12.90;99.90
12015;DHT22;6066;48.138;16.402;2022-09-17T05:40:00;12.90;99.90
12015;DHT22;6066;48.138;16.402;2022-09-17T05:42:27;12.90;99.90
12015;DHT22;6066;48.138;16.402;2022-09-17T05:44:54;12.90;99.90
12015;DHT22;6066;48.138;16.402;2022-09-17T05:47:20;12.90;99.90
12015;DHT22;6066;48.138;16.402;2022-09-17T05:49:48;12.90;99.90
12015;DHT22;6066;48.138;16.402;2022-09-17T05:52:15;12.90;99.90
12015;DHT22;6066;48.138;16.402;2022-09-17T05:54:42;13.00;99.90
12015;DHT22;6066;48.138;16.402;2022-09-17T05:57:09;13.00;99.90
12015;DHT22;6066;48.138;16.402;2022-09-17T05:59:35;13.00;99.90
12015;DHT22;6066;48.138;16.402;2022-09-17T06:02:02;13.10;99.90
12015;DHT22;6066;48.138;16.402;2022-09-17T06:04:29;13.00;99.90
12015;DHT22;6066;48.138;16.402;2022-09-17T06:06:57;13.00;99.90
12015;DHT22;6066;48.138;16.402;2022-09-17T06:09:24;13.00;99.90
12015;DHT22;6066;48.138;16.402;2022-09-17T06:11:51;13.00;99.90
12015;DHT22;6066;48.138;16.402;2022-09-17T06:14:17;13.00;99.90
12015;DHT22;6066;48.138;16.402;2022-09-17T06:16:44;13.00;99.90
12015;DHT22;6066;48.138;16.402;2022-09-17T06:19:11;13.00;99.90
12015;DHT22;6066;48.138;16.402;2022-09-17T06:21:37;13.10;99.90
12015;DHT22;6066;48.138;16.402;2022-09-17T06:24:05;13.10;99.90
12015;DHT22;6066;48.138;16.402;2022-09-17T06:26:32;13.10;99.90
12015;DHT22;6066;48.138;16.402;2022-09-17T06:28:59;13.20;99.90
12015;DHT22;6066;48.138;16.402;2022-09-17T06:31:26;13.20;99.90
12015;DHT22;6066;48.138;16.402;2022-09-17T06:33:54;13.20;99.90
12015;DHT22;6066;48.138;16.402;2022-09-17T06:36:20;13.30;99.90
12015;DHT22;6066;48.138;16.402;2022-09-17T06:38:47;13.30;99.90
12015;DHT22;6066;48.138;16.402;2022-09-17T06:41:15;13.30;99.90
12015;DHT22;6066;48.138;16.402;2022-09-17T06:43:42;13.40;99.90
12015;DHT22;6066;48.138;16.402;2022-09-17T06:46:09;13.40;99.90
12015;DHT22;6066;48.138;16.402;2022-09-17T06:48:36;13.40;99.90
12015;DHT22;6066;48.138;16.402;2022-09-17T06:51:04;13.50;99.90
12015;DHT22;6066;48.138;16.402;2022-09-17T06:53:31;13.50;99.90
12015;DHT22;6066;48.138;16.402;2022-09-17T06:55:58;13.50;99.90
12015;DHT22;6066;48.138;16.402;2022-09-17T06:58:27;13.50;99.90
12015;DHT22;6066;48.138;16.402;2022-09-17T07:00:56;13.50;99.90
12015;DHT22;6066;48.138;16.402;2022-09-17T07:03:23;13.60;99.90
12015;DHT22;6066;48.138;16.402;2022-09-17T07:05:50;13.60;99.90
12015;DHT22;6066;48.138;16.402;2022-09-17T07:08:17;13.60;99.90
12015;DHT22;6066;48.138;16.402;2022-09-17T07:10:43;13.60;99.90
12015;DHT22;6066;48.138;16.402;2022-09-17T07:13:10;13.70;99.90
12015;DHT22;6066;48.138;16.402;2022-09-17T07:15:38;13.70;99.90
12015;DHT22;6066;48.138;16.402;2022-09-17T07:18:08;13.70;99.90
12015;DHT22;6066;48.138;16.402;2022-09-17T07:20:35;13.70;99.90
12015;DHT22;6066;48.138;16.402;2022-09-17T07:23:01;13.70;99.90
12015;DHT22;6066;48.138;16.402;2022-09-17T07:25:28;13.80;99.90
12015;DHT22;6066;48.138;16.402;2022-09-17T07:27:55;13.80;99.90
12015;DHT22;6066;48.138;16.402;2022-09-17T07:30:22;13.80;99.90
12015;DHT22;6066;48.138;16.402;2022-09-17T07:32:50;13.80;99.90
12015;DHT22;6066;48.138;16.402;2022-09-17T07:35:16;13.80;99.90
12015;DHT22;6066;48.138;16.402;2022-09-17T07:37:43;13.70;99.90
12015;DHT22;6066;48.138;16.402;2022-09-17T07:40:10;13.70;99.90
12015;DHT22;6066;48.138;16.402;2022-09-17T07:42:36;13.80;99.90
12015;DHT22;6066;48.138;16.402;2022-09-17T07:45:03;13.80;99.90
12015;DHT22;6066;48.138;16.402;2022-09-17T07:47:31;13.80;99.90
12015;DHT22;6066;48.138;16.402;2022-09-17T07:49:59;13.80;99.90
12015;DHT22;6066;48.138;16.402;2022-09-17T07:52:25;13.80;99.90
12015;DHT22;6066;48.138;16.402;2022-09-17T07:54:52;13.80;99.90
12015;DHT22;6066;48.138;16.402;2022-09-17T07:57:21;13.80;99.90
12015;DHT22;6066;48.138;16.402;2022-09-17T07:59:48;13.80;99.90
12015;DHT22;6066;48.138;16.402;2022-09-17T08:02:15;13.80;99.90
12015;DHT22;6066;48.138;16.402;2022-09-17T08:04:42;13.80;99.90
12015;DHT22;6066;48.138;16.402;2022-09-17T08:07:11;13.70;99.90
12015;DHT22;6066;48.138;16.402;2022-09-17T08:09:38;13.70;99.90
12015;DHT22;6066;48.138;16.402;2022-09-17T08:12:05;13.70;99.90
12015;DHT22;6066;48.138;16.402;2022-09-17T08:14:32;13.60;99.90
12015;DHT22;6066;48.138;16.402;2022-09-17T08:16:58;13.60;99.90
12015;DHT22;6066;48.138;16.402;2022-09-17T08:19:25;13.60;99.90
12015;DHT22;6066;48.138;16.402;2022-09-17T08:21:52;13.50;99.90
12015;DHT22;6066;48.138;16.402;2022-09-17T08:24:20;13.50;99.90
12015;DHT22;6066;48.138;16.402;2022-09-17T08:26:47;13.50;99.90
12015;DHT22;6066;48.138;16.402;2022-09-17T08:29:14;13.50;99.90
12015;DHT22;6066;48.138;16.402;2022-09-17T08:31:40;13.50;99.90
12015;DHT22;6066;48.138;16.402;2022-09-17T08:34:07;13.50;99.90
12015;DHT22;6066;48.138;16.402;2022-09-17T08:36:34;13.60;99.90
12015;DHT22;6066;48.138;16.402;2022-09-17T08:39:01;13.60;99.90
12015;DHT22;6066;48.138;16.402;2022-09-17T08:41:32;13.60;99.90
12015;DHT22;6066;48.138;16.402;2022-09-17T08:44:04;13.60;99.90
12015;DHT22;6066;48.138;16.402;2022-09-17T08:46:35;13.60;99.90
12015;DHT22;6066;48.138;16.402;2022-09-17T08:49:05;13.60;99.90
12015;DHT22;6066;48.138;16.402;2022-09-17T08:51:35;13.50;99.90
12015;DHT22;6066;48.138;16.402;2022-09-17T08:54:05;13.40;99.90
12015;DHT22;6066;48.138;16.402;2022-09-17T08:56:36;13.40;99.90
12015;DHT22;6066;48.138;16.402;2022-09-17T08:59:08;13.30;99.90
12015;DHT22;6066;48.138;16.402;2022-09-17T09:01:39;13.30;99.90
12015;DHT22;6066;48.138;16.402;2022-09-17T09:04:12;13.20;99.90
12015;DHT22;6066;48.138;16.402;2022-09-17T09:06:41;13.20;99.90
12015;DHT22;6066;48.138;16.402;2022-09-17T09:09:10;13.20;99.90
12015;DHT22;6066;48.138;16.402;2022-09-17T09:11:38;13.20;99.90
12015;DHT22;6066;48.138;16.402;2022-09-17T09:14:09;13.20;99.90
12015;DHT22;6066;48.138;16.402;2022-09-17T09:16:38;13.20;99.90
12015;DHT22;6066;48.138;16.402;2022-09-17T09:19:10;13.20;99.90
12015;DHT22;6066;48.138;16.402;2022-09-17T09:21:41;13.30;99.90
12015;DHT22;6066;48.138;16.402;2022-09-17T09:24:14;13.30;99.90
12015;DHT22;6066;48.138;16.402;2022-09-17T09:26:47;13.30;99.90
12015;DHT22;6066;48.138;16.402;2022-09-17T09:29:16;13.30;99.90
12015;DHT22;6066;48.138;16.402;2022-09-17T09:31:48;13.30;99.90
12015;DHT22;6066;48.138;16.402;2022-09-17T09:34:19;13.20;99.90
12015;DHT22;6066;48.138;16.402;2022-09-17T09:36:46;13.20;99.90
12015;DHT22;6066;48.138;16.402;2022-09-17T09:39:14;13.20;99.90
12015;DHT22;6066;48.138;16.402;2022-09-17T09:41:42;13.10;99.90
12015;DHT22;6066;48.138;16.402;2022-09-17T09:44:11;13.10;99.90
12015;DHT22;6066;48.138;16.402;2022-09-17T09:46:50;13.20;99.90
12015;DHT22;6066;48.138;16.402;2022-09-17T09:49:21;13.20;99.90
12015;DHT22;6066;48.138;16.402;2022-09-17T09:51:53;13.30;99.90
12015;DHT22;6066;48.138;16.402;2022-09-17T09:54:26;13.30;99.90
12015;DHT22;6066;48.138;16.402;2022-09-17T09:56:55;13.40;99.90
12015;DHT22;6066;48.138;16.402;2022-09-17T09:59:24;13.40;99.90
12015;DHT22;6066;48.138;16.402;2022-09-17T10:01:51;13.50;99.90
12015;DHT22;6066;48.138;16.402;2022-09-17T10:04:19;13.60;99.90
12015;DHT22;6066;48.138;16.402;2022-09-17T10:06:46;13.60;99.90
12015;DHT22;6066;48.138;16.402;2022-09-17T10:09:14;13.70;99.90
12015;DHT22;6066;48.138;16.402;2022-09-17T10:11:42;13.70;99.90
12015;DHT22;6066;48.138;16.402;2022-09-17T10:14:13;13.70;99.90
12015;DHT22;6066;48.138;16.402;2022-09-17T10:16:41;13.70;99.90
12015;DHT22;6066;48.138;16.402;2022-09-17T10:19:11;13.70;99.90
12015;DHT22;6066;48.138;16.402;2022-09-17T10:21:39;13.70;99.90
12015;DHT22;6066;48.138;16.402;2022-09-17T10:24:10;13.80;99.90
12015;DHT22;6066;48.138;16.402;2022-09-17T10:26:38;13.80;99.90
12015;DHT22;6066;48.138;16.402;2022-09-17T10:29:05;13.90;99.90
12015;DHT22;6066;48.138;16.402;2022-09-17T10:31:46;13.90;99.90
12015;DHT22;6066;48.138;16.402;2022-09-17T10:34:17;13.90;99.90
12015;DHT22;6066;48.138;16.402;2022-09-17T10:36:45;13.90;99.90
12015;DHT22;6066;48.138;16.402;2022-09-17T10:41:59;13.80;99.90
12015;DHT22;6066;48.138;16.402;2022-09-17T10:44:27;13.80;99.90
12015;DHT22;6066;48.138;16.402;2022-09-17T10:46:59;13.80;99.90
12015;DHT22;6066;48.138;16.402;2022-09-17T10:49:31;13.90;99.90
12015;DHT22;6066;48.138;16.402;2022-09-17T10:52:10;13.90;99.90
12015;DHT22;6066;48.138;16.402;2022-09-17T10:57:22;14.00;99.90
12015;DHT22;6066;48.138;16.402;2022-09-17T11:00:03;14.10;99.90
12015;DHT22;6066;48.138;16.402;2022-09-17T11:02:44;14.10;99.90
12015;DHT22;6066;48.138;16.402;2022-09-17T11:05:25;14.20;99.90
12015;DHT22;6066;48.138;16.402;2022-09-17T11:07:55;14.40;99.90
12015;DHT22;6066;48.138;16.402;2022-09-17T11:10:26;14.50;99.90
12015;DHT22;6066;48.138;16.402;2022-09-17T11:12:59;14.70;99.90
12015;DHT22;6066;48.138;16.402;2022-09-17T11:15:34;14.80;99.90
12015;DHT22;6066;48.138;16.402;2022-09-17T11:18:11;14.80;99.90
12015;DHT22;6066;48.138;16.402;2022-09-17T11:20:47;15.00;99.90
12015;DHT22;6066;48.138;16.402;2022-09-17T11:23:21;15.00;99.90
12015;DHT22;6066;48.138;16.402;2022-09-17T11:25:54;15.00;99.90
12015;DHT22;6066;48.138;16.402;2022-09-17T11:28:31;15.00;99.90
12015;DHT22;6066;48.138;16.402;2022-09-17T11:31:04;15.00;99.90
12015;DHT22;6066;48.138;16.402;2022-09-17T11:36:18;15.00;99.90
12015;DHT22;6066;48.138;16.402;2022-09-17T11:38:47;15.00;99.90
12015;DHT22;6066;48.138;16.402;2022-09-17T11:41:15;15.00;99.90
12015;DHT22;6066;48.138;16.402;2022-09-17T11:43:43;14.90;99.90
12015;DHT22;6066;48.138;16.402;2022-09-17T11:46:12;14.80;99.90
12015;DHT22;6066;48.138;16.402;2022-09-17T11:48:42;14.70;99.90
12015;DHT22;6066;48.138;16.402;2022-09-17T11:51:14;14.70;99.90
12015;DHT22;6066;48.138;16.402;2022-09-17T11:53:46;14.70;99.90
12015;DHT22;6066;48.138;16.402;2022-09-17T11:56:16;14.70;99.90
12015;DHT22;6066;48.138;16.402;2022-09-17T11:58:47;14.70;99.90
12015;DHT22;6066;48.138;16.402;2022-09-17T12:01:15;14.70;99.90
12015;DHT22;6066;48.138;16.402;2022-09-17T12:03:46;14.70;99.90
12015;DHT22;6066;48.138;16.402;2022-09-17T12:06:16;14.60;99.90
12015;DHT22;6066;48.138;16.402;2022-09-17T12:08:47;14.50;99.90
12015;DHT22;6066;48.138;16.402;2022-09-17T12:11:19;14.40;99.90
12015;DHT22;6066;48.138;16.402;2022-09-17T12:13:49;14.40;99.90
12015;DHT22;6066;48.138;16.402;2022-09-17T12:16:18;14.30;99.90
12015;DHT22;6066;48.138;16.402;2022-09-17T12:18:51;14.20;99.90
12015;DHT22;6066;48.138;16.402;2022-09-17T12:21:20;14.10;99.90
12015;DHT22;6066;48.138;16.402;2022-09-17T12:23:51;14.00;99.90
12015;DHT22;6066;48.138;16.402;2022-09-17T12:26:29;13.90;99.90
12015;DHT22;6066;48.138;16.402;2022-09-17T12:28:59;13.90;99.90
12015;DHT22;6066;48.138;16.402;2022-09-17T12:31:30;13.90;99.90
12015;DHT22;6066;48.138;16.402;2022-09-17T12:34:00;13.80;99.90
12015;DHT22;6066;48.138;16.402;2022-09-17T12:36:34;13.70;99.90
12015;DHT22;6066;48.138;16.402;2022-09-17T12:41:49;13.50;99.90
12015;DHT22;6066;48.138;16.402;2022-09-17T12:44:21;13.40;99.90
12015;DHT22;6066;48.138;16.402;2022-09-17T12:46:56;13.40;99.90
12015;DHT22;6066;48.138;16.402;2022-09-17T12:49:31;13.40;99.90
12015;DHT22;6066;48.138;16.402;2022-09-17T12:52:00;13.40;99.90
12015;DHT22;6066;48.138;16.402;2022-09-17T12:54:39;13.50;99.90
12015;DHT22;6066;48.138;16.402;2022-09-17T12:57:10;13.40;99.90
12015;DHT22;6066;48.138;16.402;2022-09-17T12:59:45;13.50;99.90
12015;DHT22;6066;48.138;16.402;2022-09-17T13:02:14;13.50;99.90
12015;DHT22;6066;48.138;16.402;2022-09-17T13:07:45;13.50;99.90
12015;DHT22;6066;48.138;16.402;2022-09-17T13:13:13;13.40;99.90
12015;DHT22;6066;48.138;16.402;2022-09-17T13:15:44;13.40;99.90
12015;DHT22;6066;48.138;16.402;2022-09-17T13:18:14;13.40;99.90
12015;DHT22;6066;48.138;16.402;2022-09-17T13:20:53;13.40;99.90
12015;DHT22;6066;48.138;16.402;2022-09-17T13:23:33;13.40;99.90
12015;DHT22;6066;48.138;16.402;2022-09-17T13:26:00;13.30;99.90
12015;DHT22;6066;48.138;16.402;2022-09-17T13:28:36;13.30;99.90
12015;DHT22;6066;48.138;16.402;2022-09-17T13:31:03;13.20;99.90
12015;DHT22;6066;48.138;16.402;2022-09-17T13:36:34;13.20;99.90
12015;DHT22;6066;48.138;16.402;2022-09-17T13:39:02;13.10;99.90
12015;DHT22;6066;48.138;16.402;2022-09-17T13:41:31;13.10;99.90
12015;DHT22;6066;48.138;16.402;2022-09-17T13:44:00;13.00;99.90
12015;DHT22;6066;48.138;16.402;2022-09-17T13:46:29;13.00;99.90
12015;DHT22;6066;48.138;16.402;2022-09-17T13:48:58;13.00;99.90
12015;DHT22;6066;48.138;16.402;2022-09-17T13:54:34;13.00;99.90
12015;DHT22;6066;48.138;16.402;2022-09-17T13:57:03;13.00;99.90
12015;DHT22;6066;48.138;16.402;2022-09-17T13:59:34;13.10;99.90
12015;DHT22;6066;48.138;16.402;2022-09-17T14:02:03;13.10;99.90
12015;DHT22;6066;48.138;16.402;2022-09-17T14:04:50;13.00;99.90
12015;DHT22;6066;48.138;16.402;2022-09-17T14:07:30;13.10;99.90
12015;DHT22;6066;48.138;16.402;2022-09-17T14:09:58;13.00;99.90
12015;DHT22;6066;48.138;16.402;2022-09-17T14:15:33;13.00;99.90
12015;DHT22;6066;48.138;16.402;2022-09-17T14:18:00;13.10;99.90
12015;DHT22;6066;48.138;16.402;2022-09-17T14:20:28;13.10;99.90
12015;DHT22;6066;48.138;16.402;2022-09-17T14:22:55;13.00;99.90
12015;DHT22;6066;48.138;16.402;2022-09-17T14:25:30;13.00;99.90
12015;DHT22;6066;48.138;16.402;2022-09-17T14:27:58;13.00;99.90
12015;DHT22;6066;48.138;16.402;2022-09-17T14:30:28;13.00;99.90
12015;DHT22;6066;48.138;16.402;2022-09-17T14:33:05;13.00;99.90
12015;DHT22;6066;48.138;16.402;2022-09-17T14:35:34;12.90;99.90
12015;DHT22;6066;48.138;16.402;2022-09-17T14:38:02;13.00;99.90
12015;DHT22;6066;48.138;16.402;2022-09-17T14:40:29;12.90;99.90
12015;DHT22;6066;48.138;16.402;2022-09-17T14:42:58;12.90;99.90
12015;DHT22;6066;48.138;16.402;2022-09-17T14:45:26;12.90;99.90
12015;DHT22;6066;48.138;16.402;2022-09-17T14:50:40;12.90;99.90
12015;DHT22;6066;48.138;16.402;2022-09-17T14:53:07;13.00;99.90
12015;DHT22;6066;48.138;16.402;2022-09-17T14:55:39;12.90;99.90
12015;DHT22;6066;48.138;16.402;2022-09-17T14:58:18;12.90;99.90
12015;DHT22;6066;48.138;16.402;2022-09-17T15:00:50;12.90;99.90
12015;DHT22;6066;48.138;16.402;2022-09-17T15:03:19;12.90;99.90
12015;DHT22;6066;48.138;16.402;2022-09-17T15:05:47;12.90;99.90
12015;DHT22;6066;48.138;16.402;2022-09-17T15:08:15;12.80;99.90
12015;DHT22;6066;48.138;16.402;2022-09-17T15:10:47;12.80;99.90
12015;DHT22;6066;48.138;16.402;2022-09-17T15:13:15;12.80;99.90
12015;DHT22;6066;48.138;16.402;2022-09-17T15:15:49;12.90;99.90
12015;DHT22;6066;48.138;16.402;2022-09-17T15:18:17;12.90;99.90
12015;DHT22;6066;48.138;16.402;2022-09-17T15:20:44;12.90;99.90
12015;DHT22;6066;48.138;16.402;2022-09-17T15:23:13;12.90;99.90
12015;DHT22;6066;48.138;16.402;2022-09-17T15:25:42;12.90;99.90
12015;DHT22;6066;48.138;16.402;2022-09-17T15:28:13;12.90;99.90
12015;DHT22;6066;48.138;16.402;2022-09-17T15:30:43;12.90;99.90
12015;DHT22;6066;48.138;16.402;2022-09-17T15:33:10;12.90;99.90
12015;DHT22;6066;48.138;16.402;2022-09-17T15:35:37;12.90;99.90
12015;DHT22;6066;48.138;16.402;2022-09-17T15:38:19;12.90;99.90
12015;DHT22;6066;48.138;16.402;2022-09-17T15:40:46;12.90;99.90
12015;DHT22;6066;48.138;16.402;2022-09-17T15:43:15;12.90;99.90
12015;DHT22;6066;48.138;16.402;2022-09-17T15:45:42;12.90;99.90
12015;DHT22;6066;48.138;16.402;2022-09-17T15:48:33;12.90;99.90
12015;DHT22;6066;48.138;16.402;2022-09-17T15:51:00;12.90;99.90
12015;DHT22;6066;48.138;16.402;2022-09-17T15:53:29;12.90;99.90
12015;DHT22;6066;48.138;16.402;2022-09-17T15:55:59;12.80;99.90
12015;DHT22;6066;48.138;16.402;2022-09-17T15:58:27;12.80;99.90
12015;DHT22;6066;48.138;16.402;2022-09-17T16:03:59;12.80;99.90
12015;DHT22;6066;48.138;16.402;2022-09-17T16:06:36;12.80;99.90
12015;DHT22;6066;48.138;16.402;2022-09-17T16:09:34;12.80;99.90
12015;DHT22;6066;48.138;16.402;2022-09-17T16:11:57;12.80;99.90
12015;DHT22;6066;48.138;16.402;2022-09-17T16:14:24;12.70;99.90
12015;DHT22;6066;48.138;16.402;2022-09-17T16:16:51;12.70;99.90